createdAt,value
2022-10-25T00:01:51.433Z,61.86
2022-10-25T00:04:18.610Z,61.82
2022-10-25T00:06:45.512Z,61.81
2022-10-25T00:09:12.543Z,61.82
2022-10-25T00:11:39.858Z,61.85
2022-10-25T00:14:07.920Z,61.87
2022-10-25T00:16:38.942Z,61.70
2022-10-25T00:19:06.494Z,61.73
2022-10-25T00:21:33.438Z,61.96
2022-10-25T00:24:00.323Z,61.92
2022-10-25T00:26:27.210Z,61.78
2022-10-25T00:28:55.871Z,62.12
2022-10-25T00:31:24.619Z,61.70
2022-10-25T00:33:51.787Z,62.15
2022-10-25T00:36:25.489Z,61.80
2022-10-25T00:38:53.240Z,61.90
2022-10-25T00:41:23.991Z,61.95
2022-10-25T00:43:54.288Z,61.86
2022-10-25T00:46:28.190Z,61.82
2022-10-25T00:49:10.998Z,61.91
2022-10-25T00:51:51.370Z,61.90
2022-10-25T00:54:24.396Z,62.22
2022-10-25T00:56:52.943Z,62.40
2022-10-25T00:59:24.850Z,62.03
2022-10-25T01:01:55.035Z,61.92
2022-10-25T01:04:27.574Z,62.32
2022-10-25T01:06:54.770Z,62.11
2022-10-25T01:09:27.776Z,62.24
2022-10-25T01:11:54.664Z,62.40
2022-10-25T01:14:22.591Z,61.99
2022-10-25T01:17:10.286Z,62.56
2022-10-25T01:19:44.622Z,62.48
2022-10-25T01:22:51.360Z,62.46
2022-10-25T01:25:40.563Z,62.66
2022-10-25T01:28:51.371Z,62.82
2022-10-25T01:31:51.021Z,63.14
2022-10-25T01:34:32.056Z,62.91
2022-10-25T01:37:11.950Z,63.28
2022-10-25T01:40:14.103Z,63.18
2022-10-25T01:43:01.208Z,63.24
2022-10-25T01:45:41.772Z,62.91
2022-10-25T01:48:22.315Z,62.99
2022-10-25T01:50:49.475Z,63.18
2022-10-25T01:53:16.360Z,63.21
2022-10-25T01:55:51.879Z,63.17
2022-10-25T01:58:56.169Z,63.27
2022-10-25T02:01:37.862Z,63.09
2022-10-25T02:04:22.531Z,63.41
2022-10-25T02:06:56.143Z,63.59
2022-10-25T02:09:37.084Z,63.38
2022-10-25T02:12:07.190Z,63.42
2022-10-25T02:14:40.293Z,63.42
2022-10-25T02:17:19.718Z,63.39
2022-10-25T02:19:54.539Z,63.28
2022-10-25T02:22:27.491Z,63.23
2022-10-25T02:24:57.664Z,63.14
2022-10-25T02:27:26.002Z,63.12
2022-10-25T02:29:53.863Z,62.93
2022-10-25T02:32:21.450Z,63.15
2022-10-25T02:34:49.372Z,63.17
2022-10-25T02:37:17.143Z,62.93
2022-10-25T02:39:45.514Z,63.19
2022-10-25T02:42:12.651Z,63.04
2022-10-25T02:44:39.562Z,63.20
2022-10-25T02:47:06.471Z,62.78
2022-10-25T02:49:33.412Z,63.04
2022-10-25T02:52:00.323Z,62.99
2022-10-25T02:54:27.209Z,63.30
2022-10-25T02:56:54.170Z,63.20
2022-10-25T02:59:21.396Z,63.03
2022-10-25T03:01:48.679Z,63.24
2022-10-25T03:04:15.724Z,62.87
2022-10-25T03:06:42.624Z,63.23
2022-10-25T03:09:09.516Z,62.82
2022-10-25T03:11:36.409Z,63.20
2022-10-25T03:14:03.296Z,63.07
2022-10-25T03:16:30.227Z,63.04
2022-10-25T03:18:58.459Z,63.23
2022-10-25T03:21:25.930Z,63.54
2022-10-25T03:23:53.038Z,63.19
2022-10-25T03:26:19.981Z,63.18
2022-10-25T03:28:46.866Z,63.33
2022-10-25T03:31:16.668Z,63.75
2022-10-25T03:33:44.007Z,63.90
2022-10-25T03:36:10.925Z,63.76
2022-10-25T03:38:37.802Z,64.16
2022-10-25T03:41:05.162Z,64.18
2022-10-25T03:43:32.048Z,64.31
2022-10-25T03:45:58.985Z,64.22
2022-10-25T03:48:25.854Z,64.30
2022-10-25T03:50:54.295Z,64.38
2022-10-25T03:53:21.383Z,64.29
2022-10-25T03:55:48.328Z,64.20
2022-10-25T03:58:15.347Z,64.41
2022-10-25T04:00:42.282Z,64.40
2022-10-25T04:03:09.499Z,64.69
2022-10-25T04:05:36.371Z,64.53
2022-10-25T04:08:03.389Z,64.36
2022-10-25T04:10:30.262Z,64.31
2022-10-25T04:12:57.137Z,64.42
2022-10-25T04:15:24.961Z,64.46
2022-10-25T04:17:53.388Z,64.40
2022-10-25T04:20:20.509Z,64.75
2022-10-25T04:22:57.020Z,64.60
2022-10-25T04:25:26.899Z,64.54
2022-10-25T04:27:53.965Z,64.49
2022-10-25T04:30:20.881Z,64.79
2022-10-25T04:32:48.038Z,64.95
2022-10-25T04:35:15.099Z,64.74
2022-10-25T04:37:42.050Z,64.88
2022-10-25T04:40:09.899Z,64.83
2022-10-25T04:42:36.788Z,65.19
2022-10-25T04:45:03.836Z,65.13
2022-10-25T04:47:32.512Z,65.07
2022-10-25T04:49:59.436Z,65.15
2022-10-25T04:52:26.354Z,65.47
2022-10-25T04:54:53.218Z,65.47
2022-10-25T04:57:20.092Z,65.59
2022-10-25T04:59:46.942Z,65.44
2022-10-25T05:02:14.817Z,65.36
2022-10-25T05:04:42.529Z,65.44
2022-10-25T05:07:09.402Z,65.34
2022-10-25T05:09:36.277Z,65.32
2022-10-25T05:12:03.221Z,65.52
2022-10-25T05:14:30.112Z,65.61
2022-10-25T05:16:57.016Z,65.56
2022-10-25T05:19:23.925Z,65.59
2022-10-25T05:21:50.782Z,65.45
2022-10-25T05:24:17.977Z,65.28
2022-10-25T05:26:44.865Z,65.22
2022-10-25T05:29:12.971Z,64.98
2022-10-25T05:31:41.329Z,65.21
2022-10-25T05:34:09.799Z,65.10
2022-10-25T05:36:36.691Z,64.90
2022-10-25T05:39:03.843Z,64.73
2022-10-25T05:41:33.395Z,65.19
2022-10-25T05:44:03.174Z,65.07
2022-10-25T05:46:30.069Z,64.94
2022-10-25T05:48:59.636Z,64.97
2022-10-25T05:51:36.581Z,65.17
2022-10-25T05:54:12.696Z,64.88
2022-10-25T05:56:41.200Z,65.02
2022-10-25T05:59:15.225Z,65.23
2022-10-25T06:01:45.230Z,65.02
2022-10-25T06:04:12.909Z,65.34
2022-10-25T06:06:41.615Z,65.19
2022-10-25T06:09:09.139Z,65.17
2022-10-25T06:11:36.317Z,64.96
2022-10-25T06:14:03.708Z,65.33
2022-10-25T06:16:30.645Z,65.05
2022-10-25T06:18:57.825Z,65.16
2022-10-25T06:21:27.916Z,64.96
2022-10-25T06:23:55.109Z,65.52
2022-10-25T06:26:25.934Z,65.22
2022-10-25T06:28:55.730Z,65.58
2022-10-25T06:31:23.292Z,65.77
2022-10-25T06:33:50.177Z,65.62
2022-10-25T06:36:20.452Z,65.51
2022-10-25T06:38:48.471Z,65.78
2022-10-25T06:41:21.637Z,65.55
2022-10-25T06:43:49.496Z,65.86
2022-10-25T06:46:33.036Z,65.72
2022-10-25T06:49:02.146Z,65.47
2022-10-25T06:51:29.430Z,65.52
2022-10-25T06:53:57.800Z,65.70
2022-10-25T06:56:26.308Z,65.43
2022-10-25T06:58:53.321Z,65.78
2022-10-25T07:01:22.290Z,65.83
2022-10-25T07:03:50.893Z,65.61
2022-10-25T07:06:22.868Z,65.52
2022-10-25T07:08:58.674Z,65.96
2022-10-25T07:11:29.509Z,65.97
2022-10-25T07:13:58.596Z,65.84
2022-10-25T07:16:26.353Z,66.30
2022-10-25T07:18:58.081Z,66.57
2022-10-25T07:21:25.071Z,66.63
2022-10-25T07:23:52.068Z,66.23
2022-10-25T07:26:21.991Z,66.49
2022-10-25T07:28:50.853Z,66.31
2022-10-25T07:31:27.279Z,66.71
2022-10-25T07:33:56.685Z,66.36
2022-10-25T07:36:23.566Z,66.21
2022-10-25T07:38:50.496Z,66.05
2022-10-25T07:41:17.402Z,66.57
2022-10-25T07:43:44.797Z,66.17
2022-10-25T07:46:11.741Z,66.18
2022-10-25T07:48:38.618Z,65.76
2022-10-25T07:51:09.571Z,66.26
2022-10-25T07:53:36.427Z,65.67
2022-10-25T07:56:03.727Z,65.93
2022-10-25T07:58:30.611Z,65.55
2022-10-25T08:01:06.598Z,66.00
2022-10-25T08:03:33.684Z,65.67
2022-10-25T08:06:01.194Z,65.79
2022-10-25T08:08:29.684Z,65.88
2022-10-25T08:10:57.415Z,65.41
2022-10-25T08:13:24.500Z,65.45
2022-10-25T08:15:55.836Z,65.64
2022-10-25T08:18:24.470Z,65.65
2022-10-25T08:21:06.758Z,65.15
2022-10-25T08:23:33.750Z,64.82
2022-10-25T08:26:02.176Z,65.13
2022-10-25T08:28:31.246Z,64.75
2022-10-25T08:30:58.701Z,65.05
2022-10-25T08:33:25.632Z,64.57
2022-10-25T08:35:52.471Z,64.80
2022-10-25T08:38:19.359Z,64.18
2022-10-25T08:41:03.425Z,64.88
2022-10-25T08:43:51.052Z,64.79
2022-10-25T08:46:28.245Z,64.48
2022-10-25T08:49:19.607Z,63.94
2022-10-25T08:51:48.644Z,63.90
2022-10-25T08:54:25.040Z,63.55
2022-10-25T08:57:15.195Z,63.16
2022-10-25T08:59:49.466Z,62.56
2022-10-25T09:02:40.825Z,62.49
2022-10-25T09:05:33.228Z,61.56
2022-10-25T09:08:22.456Z,62.01
2022-10-25T09:10:58.249Z,61.82
2022-10-25T09:13:43.605Z,62.03
2022-10-25T09:16:25.197Z,61.30
2022-10-25T09:18:57.174Z,61.39
2022-10-25T09:21:45.932Z,61.45
2022-10-25T09:24:27.402Z,61.06
2022-10-25T09:27:28.452Z,60.57
2022-10-25T09:30:10.771Z,60.69
2022-10-25T09:32:56.852Z,60.61
2022-10-25T09:35:41.231Z,60.39
2022-10-25T09:38:18.010Z,60.69
2022-10-25T09:41:06.404Z,60.38
2022-10-25T09:43:42.780Z,60.62
2022-10-25T09:46:18.881Z,60.80
2022-10-25T09:48:56.688Z,60.25
2022-10-25T09:51:38.714Z,60.13
2022-10-25T09:54:21.055Z,59.99
2022-10-25T09:56:47.952Z,59.50
2022-10-25T09:59:15.983Z,59.00
2022-10-25T10:01:43.583Z,58.55
2022-10-25T10:04:37.114Z,59.04
2022-10-25T10:07:12.292Z,59.14
2022-10-25T10:09:45.571Z,58.76
2022-10-25T10:12:22.659Z,58.65
2022-10-25T10:14:58.384Z,58.37
2022-10-25T10:17:27.284Z,58.39
2022-10-25T10:20:18.636Z,58.41
2022-10-25T10:22:54.776Z,58.65
2022-10-25T10:25:26.547Z,58.58
2022-10-25T10:27:56.918Z,58.48
2022-10-25T10:30:29.568Z,58.05
2022-10-25T10:33:03.101Z,58.19
2022-10-25T10:35:36.329Z,58.62
2022-10-25T10:38:24.827Z,58.24
2022-10-25T10:41:23.379Z,58.21
2022-10-25T10:44:07.339Z,58.30
2022-10-25T10:46:34.282Z,58.23
2022-10-25T10:49:02.686Z,58.10
2022-10-25T10:51:45.366Z,58.07
2022-10-25T10:54:30.042Z,58.13
2022-10-25T10:57:03.721Z,57.95
2022-10-25T10:59:40.086Z,58.00
2022-10-25T11:02:20.614Z,57.62
2022-10-25T11:04:49.557Z,57.61
2022-10-25T11:07:35.800Z,57.57
2022-10-25T11:10:21.223Z,57.50
2022-10-25T11:13:08.839Z,57.68
2022-10-25T11:15:52.705Z,57.59
2022-10-25T11:18:50.078Z,57.80
2022-10-25T11:22:01.970Z,57.12
2022-10-25T11:25:00.470Z,57.33
2022-10-25T11:28:04.133Z,57.20
2022-10-25T11:30:44.005Z,57.45
2022-10-25T11:33:42.629Z,57.56
2022-10-25T11:36:35.517Z,57.77
2022-10-25T11:39:34.928Z,57.45
2022-10-25T11:42:30.667Z,57.72
2022-10-25T11:45:27.494Z,57.68
2022-10-25T11:48:40.491Z,57.49
2022-10-25T11:51:39.054Z,57.97
2022-10-25T11:54:44.212Z,57.66
2022-10-25T11:57:45.416Z,58.08
2022-10-25T12:00:17.701Z,57.90
2022-10-25T12:03:20.256Z,58.20
2022-10-25T12:06:09.879Z,58.30
2022-10-25T12:09:29.883Z,58.12
2022-10-25T12:12:10.049Z,58.04
2022-10-25T12:14:42.336Z,57.84
2022-10-25T12:17:26.118Z,57.52
2022-10-25T12:19:57.230Z,57.65
2022-10-25T12:22:30.593Z,57.58
2022-10-25T12:25:28.512Z,57.21
2022-10-25T12:28:20.291Z,57.16
2022-10-25T12:30:48.590Z,57.51
2022-10-25T12:33:35.279Z,57.37
2022-10-25T12:36:22.491Z,57.49
2022-10-25T12:38:49.351Z,57.56
2022-10-25T12:41:25.476Z,57.66
2022-10-25T12:44:36.604Z,57.04
2022-10-25T12:47:56.704Z,56.93
2022-10-25T12:50:53.572Z,56.44
2022-10-25T12:53:54.166Z,56.52
2022-10-25T12:56:36.112Z,55.96
2022-10-25T12:59:35.304Z,55.95
2022-10-25T13:02:39.110Z,56.12
2022-10-25T13:05:40.397Z,55.94
2022-10-25T13:08:08.046Z,56.27
2022-10-25T13:10:43.208Z,55.98
2022-10-25T13:13:33.626Z,56.35
2022-10-25T13:16:04.445Z,56.53
2022-10-25T13:18:34.269Z,56.25
2022-10-25T13:21:17.140Z,56.11
2022-10-25T13:23:44.154Z,56.29
2022-10-25T13:26:14.650Z,56.49
2022-10-25T13:28:51.372Z,56.71
2022-10-25T13:31:33.455Z,56.61
2022-10-25T13:34:12.124Z,56.69
2022-10-25T13:36:59.181Z,56.42
2022-10-25T13:39:34.689Z,56.66
2022-10-25T13:42:15.383Z,56.66
2022-10-25T13:44:55.735Z,56.61
2022-10-25T13:47:43.307Z,56.84
2022-10-25T13:50:30.787Z,56.81
2022-10-25T13:53:13.871Z,56.50
2022-10-25T13:55:53.892Z,56.47
2022-10-25T13:58:31.964Z,56.71
2022-10-25T14:01:19.235Z,56.52
2022-10-25T14:04:01.776Z,56.99
2022-10-25T14:06:33.703Z,56.91
2022-10-25T14:09:25.040Z,56.44
2022-10-25T14:12:11.997Z,56.62
2022-10-25T14:15:13.573Z,56.69
2022-10-25T14:17:44.871Z,56.76
2022-10-25T14:20:28.060Z,56.65
2022-10-25T14:23:08.047Z,56.52
2022-10-25T14:25:41.730Z,56.71
2022-10-25T14:28:16.491Z,56.39
2022-10-25T14:30:47.922Z,56.17
2022-10-25T14:33:36.632Z,55.92
2022-10-25T14:36:06.126Z,55.96
2022-10-25T14:38:49.777Z,55.92
2022-10-25T14:41:31.370Z,55.27
2022-10-25T14:43:58.565Z,55.57
2022-10-25T14:46:30.053Z,54.96
2022-10-25T14:48:59.144Z,55.59
2022-10-25T14:51:36.180Z,55.33
2022-10-25T14:54:07.013Z,55.16
2022-10-25T14:56:46.819Z,54.89
2022-10-25T14:59:31.484Z,55.31
2022-10-25T15:02:03.182Z,55.55
2022-10-25T15:04:34.590Z,55.29
2022-10-25T15:07:02.719Z,55.62
2022-10-25T15:09:42.439Z,55.53
2022-10-25T15:12:17.147Z,55.44
2022-10-25T15:14:46.515Z,55.92
2022-10-25T15:17:22.511Z,55.96
2022-10-25T15:20:01.961Z,55.84
2022-10-25T15:22:46.369Z,56.13
2022-10-25T15:25:22.283Z,55.87
2022-10-25T15:27:52.297Z,55.85
2022-10-25T15:30:50.289Z,55.62
2022-10-25T15:33:21.883Z,56.22
2022-10-25T15:35:59.160Z,56.28
2022-10-25T15:39:05.493Z,56.17
2022-10-25T15:41:22.940Z,56.30
2022-10-25T15:43:49.857Z,56.32
2022-10-25T15:46:25.728Z,56.12
2022-10-25T15:48:53.233Z,56.01
2022-10-25T15:51:20.563Z,56.13
2022-10-25T15:53:47.701Z,56.60
2022-10-25T15:56:18.809Z,56.21
2022-10-25T15:58:45.706Z,56.45
2022-10-25T16:01:13.314Z,56.57
2022-10-25T16:03:40.285Z,56.24
2022-10-25T16:06:13.274Z,56.48
2022-10-25T16:08:41.727Z,56.38
2022-10-25T16:11:16.819Z,56.36
2022-10-25T16:13:45.937Z,56.67
2022-10-25T16:16:39.469Z,57.15
2022-10-25T16:19:13.640Z,57.06
2022-10-25T16:21:40.524Z,56.85
2022-10-25T16:24:07.436Z,56.78
2022-10-25T16:26:38.292Z,56.87
2022-10-25T16:29:06.408Z,56.75
2022-10-25T16:31:33.323Z,57.04
2022-10-25T16:34:00.212Z,57.05
2022-10-25T16:36:27.112Z,57.13
2022-10-25T16:38:53.967Z,56.85
2022-10-25T16:41:29.419Z,57.09
2022-10-25T16:43:58.161Z,56.95
2022-10-25T16:46:26.143Z,57.32
2022-10-25T16:48:54.225Z,56.80
2022-10-25T16:51:24.846Z,57.10
2022-10-25T16:53:51.940Z,56.96
2022-10-25T16:56:18.993Z,57.25
2022-10-25T16:58:46.024Z,57.17
2022-10-25T17:01:29.012Z,57.36
2022-10-25T17:03:56.225Z,57.56
2022-10-25T17:09:11.029Z,58.04
2022-10-25T17:11:37.924Z,57.77
2022-10-25T17:14:05.724Z,58.08
2022-10-25T17:16:33.307Z,57.90
2022-10-25T17:19:00.544Z,58.31
2022-10-25T17:21:28.376Z,58.60
2022-10-25T17:23:56.105Z,58.61
2022-10-25T17:26:23.013Z,58.22
2022-10-25T17:28:49.904Z,58.24
2022-10-25T17:31:17.295Z,58.84
2022-10-25T17:33:44.624Z,58.79
2022-10-25T17:36:18.436Z,58.96
2022-10-25T17:38:45.460Z,58.62
2022-10-25T17:41:13.176Z,58.93
2022-10-25T17:43:41.303Z,58.94
2022-10-25T17:46:16.911Z,58.74
2022-10-25T17:48:43.787Z,58.92
2022-10-25T17:51:13.283Z,59.52
2022-10-25T17:53:40.208Z,59.50
2022-10-25T17:56:18.267Z,59.87
2022-10-25T17:58:47.715Z,59.70
2022-10-25T18:01:25.186Z,60.00
2022-10-25T18:03:54.048Z,60.01
2022-10-25T18:06:23.710Z,60.24
2022-10-25T18:08:59.055Z,60.79
2022-10-25T18:11:28.316Z,60.80
2022-10-25T18:14:00.867Z,61.07
2022-10-25T18:16:30.999Z,60.91
2022-10-25T18:19:02.228Z,60.88
2022-10-25T18:21:29.554Z,61.03
2022-10-25T18:24:00.881Z,61.32
2022-10-25T18:26:28.228Z,61.30
2022-10-25T18:28:57.037Z,61.33
2022-10-25T18:31:26.915Z,61.68
2022-10-25T18:34:03.216Z,61.56
2022-10-25T18:36:30.915Z,61.97
2022-10-25T18:38:57.897Z,61.43
2022-10-25T18:41:29.214Z,61.79
2022-10-25T18:43:56.348Z,61.68
2022-10-25T18:46:25.138Z,61.64
2022-10-25T18:48:53.268Z,61.76
2022-10-25T18:51:22.261Z,61.71
2022-10-25T18:53:56.495Z,61.50
2022-10-25T18:56:23.757Z,61.92
2022-10-25T18:58:51.097Z,61.77
2022-10-25T19:01:22.802Z,61.68
2022-10-25T19:03:50.519Z,61.96
2022-10-25T19:06:18.171Z,61.85
2022-10-25T19:08:45.094Z,61.85
2022-10-25T19:11:13.696Z,62.21
2022-10-25T19:13:41.207Z,61.82
2022-10-25T19:16:09.461Z,62.07
2022-10-25T19:18:37.518Z,61.91
2022-10-25T19:21:13.653Z,62.36
2022-10-25T19:23:42.712Z,62.32
2022-10-25T19:26:14.068Z,62.54
2022-10-25T19:28:40.946Z,62.45
2022-10-25T19:31:14.503Z,62.48
2022-10-25T19:33:46.310Z,62.50
2022-10-25T19:36:13.515Z,62.23
2022-10-25T19:38:40.786Z,62.66
2022-10-25T19:41:10.408Z,62.51
2022-10-25T19:43:37.366Z,62.30
2022-10-25T19:46:07.169Z,62.33
2022-10-25T19:48:34.899Z,62.29
2022-10-25T19:51:10.821Z,62.67
2022-10-25T19:53:38.230Z,62.79
2022-10-25T19:56:09.686Z,62.88
2022-10-25T19:58:36.895Z,62.76
2022-10-25T20:01:13.872Z,63.14
2022-10-25T20:03:41.841Z,63.05
2022-10-25T20:06:12.757Z,63.33
2022-10-25T20:08:40.867Z,63.59
2022-10-25T20:11:10.817Z,63.58
2022-10-25T20:13:38.171Z,63.18
2022-10-25T20:16:06.443Z,63.89
2022-10-25T20:18:37.393Z,64.26
2022-10-25T20:21:18.832Z,64.44
2022-10-25T20:23:50.871Z,63.97
2022-10-25T20:26:31.225Z,63.60
2022-10-25T20:29:02.193Z,63.95
2022-10-25T20:31:32.550Z,63.96
2022-10-25T20:34:00.112Z,63.54
2022-10-25T20:36:27.056Z,64.02
2022-10-25T20:38:53.961Z,63.76
2022-10-25T20:41:27.492Z,63.74
2022-10-25T20:43:59.810Z,64.04
2022-10-25T20:46:28.494Z,64.02
2022-10-25T20:48:56.975Z,64.23
2022-10-25T20:51:24.068Z,63.99
2022-10-25T20:53:51.216Z,64.12
2022-10-25T20:56:19.846Z,64.20
2022-10-25T20:58:47.128Z,64.29
2022-10-25T21:01:14.211Z,64.25
2022-10-25T21:03:41.696Z,64.37
2022-10-25T21:06:12.251Z,64.36
2022-10-25T21:08:39.556Z,64.43
2022-10-25T21:11:09.561Z,64.31
2022-10-25T21:13:37.265Z,64.68
2022-10-25T21:16:10.296Z,64.83
2022-10-25T21:18:37.630Z,64.63
2022-10-25T21:21:08.438Z,64.88
2022-10-25T21:23:35.676Z,64.97
2022-10-25T21:26:06.659Z,65.03
2022-10-25T21:28:36.904Z,65.08
2022-10-25T21:31:11.701Z,65.09
2022-10-25T21:33:39.145Z,64.57
2022-10-25T21:36:14.815Z,65.07
2022-10-25T21:38:42.358Z,65.03
2022-10-25T21:41:14.461Z,65.01
2022-10-25T21:43:44.552Z,64.91
2022-10-25T21:46:12.563Z,65.04
2022-10-25T21:48:39.711Z,64.91
2022-10-25T21:51:07.082Z,65.02
2022-10-25T21:53:33.999Z,65.09
2022-10-25T21:56:12.609Z,65.29
2022-10-25T21:58:41.425Z,65.05
2022-10-25T22:01:17.273Z,65.22
2022-10-25T22:03:44.338Z,65.38
2022-10-25T22:06:17.746Z,65.44
2022-10-25T22:08:44.943Z,65.31
2022-10-25T22:11:14.296Z,65.32
2022-10-25T22:13:41.618Z,65.16
2022-10-25T22:16:19.144Z,65.21
2022-10-25T22:19:02.903Z,65.16
2022-10-25T22:21:40.927Z,64.91
2022-10-25T22:24:09.644Z,65.02
2022-10-25T22:26:38.610Z,64.87
2022-10-25T22:29:05.778Z,64.98
2022-10-25T22:31:33.554Z,65.25
2022-10-25T22:34:03.560Z,64.84
2022-10-25T22:36:34.011Z,64.86
2022-10-25T22:39:00.994Z,64.75
2022-10-25T22:41:30.146Z,64.79
2022-10-25T22:43:58.363Z,64.88
2022-10-25T22:46:35.929Z,64.88
2022-10-25T22:49:08.567Z,64.88
2022-10-25T22:51:36.594Z,64.80
2022-10-25T22:54:03.739Z,64.84
2022-10-25T22:56:31.278Z,64.79
2022-10-25T22:59:01.612Z,64.91
2022-10-25T23:01:31.689Z,64.98
2022-10-25T23:04:00.435Z,65.08
2022-10-25T23:06:30.734Z,65.01
2022-10-25T23:09:03.628Z,65.09
2022-10-25T23:11:33.567Z,65.13
2022-10-25T23:14:01.383Z,64.89
2022-10-25T23:16:29.615Z,65.28
2022-10-25T23:18:57.044Z,65.16
2022-10-25T23:21:26.790Z,65.36
2022-10-25T23:23:54.960Z,65.25
2022-10-25T23:26:31.778Z,65.31
2022-10-25T23:29:00.140Z,65.14
2022-10-25T23:31:27.299Z,65.28
2022-10-25T23:33:56.982Z,65.21
2022-10-25T23:36:28.012Z,65.49
2022-10-25T23:38:55.765Z,65.59
2022-10-25T23:41:23.338Z,65.61
2022-10-25T23:43:50.357Z,65.66
2022-10-25T23:46:17.240Z,65.58
2022-10-25T23:48:44.113Z,65.42
2022-10-25T23:51:14.902Z,65.42
2022-10-25T23:53:42.362Z,65.25
2022-10-25T23:56:11.985Z,65.72
2022-10-25T23:58:39.594Z,65.56
